createdAt,value
2023-07-16T00:00:32.794Z,22.80
2023-07-16T00:04:35.884Z,22.77
2023-07-16T00:08:37.483Z,22.70
2023-07-16T00:12:39.167Z,22.52
2023-07-16T00:16:41.014Z,22.53
2023-07-16T00:20:43.906Z,22.48
2023-07-16T00:24:45.495Z,22.50
2023-07-16T00:28:47.070Z,22.51
2023-07-16T00:32:48.672Z,22.45
2023-07-16T00:36:51.676Z,22.36
2023-07-16T00:40:53.258Z,22.31
2023-07-16T00:44:54.808Z,22.18
2023-07-16T00:48:56.433Z,21.91
2023-07-16T00:52:59.448Z,21.41
2023-07-16T00:57:01.255Z,21.25
2023-07-16T01:01:02.819Z,20.81
2023-07-16T01:05:05.176Z,20.81
2023-07-16T01:09:16.127Z,20.51
2023-07-16T01:13:18.087Z,20.21
2023-07-16T01:17:19.652Z,20.26
2023-07-16T01:21:23.618Z,20.57
2023-07-16T01:26:06.299Z,20.35
2023-07-16T01:30:09.750Z,20.24
2023-07-16T01:34:12.500Z,20.51
2023-07-16T01:38:15.377Z,20.54
2023-07-16T01:42:17.109Z,20.50
2023-07-16T01:46:20.304Z,20.29
2023-07-16T01:50:21.971Z,20.22
2023-07-16T01:54:23.606Z,20.36
2023-07-16T01:58:25.212Z,20.04
2023-07-16T02:02:28.227Z,19.94
2023-07-16T02:06:30.009Z,19.97
2023-07-16T02:10:31.573Z,20.18
2023-07-16T02:14:33.139Z,20.08
2023-07-16T02:18:36.047Z,20.13
2023-07-16T02:22:38.050Z,20.07
2023-07-16T02:26:40.579Z,20.17
2023-07-16T02:30:42.130Z,20.17
2023-07-16T02:34:45.057Z,20.16
2023-07-16T02:38:46.633Z,19.82
2023-07-16T02:42:48.184Z,19.73
2023-07-16T02:46:49.769Z,19.84
2023-07-16T02:50:52.683Z,19.97
2023-07-16T02:54:54.330Z,19.93
2023-07-16T02:58:56.017Z,19.93
2023-07-16T03:02:57.784Z,19.97
2023-07-16T03:07:00.756Z,19.89
2023-07-16T03:11:02.241Z,19.97
2023-07-16T03:15:04.585Z,20.18
2023-07-16T03:19:06.179Z,20.32
2023-07-16T03:23:09.116Z,20.40
2023-07-16T03:27:18.231Z,20.24
2023-07-16T03:31:20.983Z,20.13
2023-07-16T03:35:25.544Z,20.02
2023-07-16T03:39:29.149Z,19.76
2023-07-16T03:43:30.715Z,19.87
2023-07-16T03:47:32.317Z,19.85
2023-07-16T03:51:34.076Z,20.02
2023-07-16T03:55:37.005Z,19.59
2023-07-16T03:59:38.616Z,19.65
2023-07-16T04:03:40.222Z,19.68
2023-07-16T04:07:41.964Z,19.39
2023-07-16T04:11:44.881Z,19.34
2023-07-16T04:15:46.439Z,19.35
2023-07-16T04:19:48.110Z,19.20
2023-07-16T04:23:49.686Z,19.17
2023-07-16T04:27:52.593Z,19.12
2023-07-16T04:31:54.587Z,19.42
2023-07-16T04:35:56.186Z,19.79
2023-07-16T04:39:57.907Z,19.85
2023-07-16T04:44:00.869Z,19.79
2023-07-16T04:48:02.471Z,20.01
2023-07-16T04:52:04.828Z,20.14
2023-07-16T04:56:12.371Z,20.03
2023-07-16T05:00:15.661Z,19.92
2023-07-16T05:04:17.285Z,19.69
2023-07-16T05:08:18.879Z,19.82
2023-07-16T05:12:20.460Z,19.73
2023-07-16T05:16:23.550Z,19.66
2023-07-16T05:20:25.192Z,19.63
2023-07-16T05:24:26.801Z,19.66
2023-07-16T05:28:28.368Z,19.65
2023-07-16T05:32:31.335Z,19.51
2023-07-16T05:36:32.951Z,19.23
2023-07-16T05:40:34.558Z,19.44
2023-07-16T05:44:36.318Z,19.48
2023-07-16T05:48:39.451Z,19.63
2023-07-16T05:52:41.053Z,19.58
2023-07-16T05:56:42.994Z,19.58
2023-07-16T06:00:44.601Z,19.67
2023-07-16T06:04:47.532Z,19.37
2023-07-16T06:08:49.108Z,19.63
2023-07-16T06:12:50.736Z,19.50
2023-07-16T06:16:52.407Z,19.21
2023-07-16T06:20:55.349Z,19.43
2023-07-16T06:24:56.924Z,19.53
2023-07-16T06:28:58.516Z,19.52
2023-07-16T06:33:00.233Z,19.54
2023-07-16T06:37:03.404Z,19.67
2023-07-16T06:41:05.158Z,19.63
2023-07-16T06:45:08.238Z,19.53
2023-07-16T06:49:09.823Z,19.46
2023-07-16T06:53:12.731Z,19.16
2023-07-16T06:57:14.208Z,19.05
2023-07-16T07:01:15.838Z,18.87
2023-07-16T07:05:17.555Z,19.01
2023-07-16T07:09:20.489Z,18.82
2023-07-16T07:13:21.933Z,19.05
2023-07-16T07:17:23.528Z,18.98
2023-07-16T07:21:25.144Z,19.09
2023-07-16T07:25:28.084Z,18.85
2023-07-16T07:29:29.682Z,18.84
2023-07-16T07:33:31.240Z,18.75
2023-07-16T07:37:32.920Z,18.95
2023-07-16T07:41:35.850Z,19.42
2023-07-16T07:45:37.443Z,19.86
2023-07-16T07:49:39.225Z,20.01
2023-07-16T07:53:40.837Z,19.92
2023-07-16T07:57:43.751Z,19.82
2023-07-16T08:01:45.164Z,19.79
2023-07-16T08:05:49.346Z,20.91
2023-07-16T08:09:50.939Z,20.79
2023-07-16T08:13:53.835Z,19.83
2023-07-16T08:17:55.736Z,19.71
2023-07-16T08:21:57.394Z,19.48
2023-07-16T08:25:59.076Z,19.47
2023-07-16T08:30:02.052Z,20.08
2023-07-16T08:34:04.761Z,20.27
2023-07-16T08:38:06.367Z,19.72
2023-07-16T08:42:10.746Z,19.81
2023-07-16T08:46:14.523Z,19.78
2023-07-16T08:50:17.895Z,20.09
2023-07-16T08:54:19.541Z,20.36
2023-07-16T08:58:24.507Z,20.66
2023-07-16T09:02:28.035Z,21.10
2023-07-16T09:06:29.910Z,20.88
2023-07-16T09:10:31.543Z,20.63
2023-07-16T09:14:33.122Z,20.75
2023-07-16T09:18:36.062Z,20.23
2023-07-16T09:22:37.658Z,20.62
2023-07-16T09:26:39.716Z,20.91
2023-07-16T09:30:41.343Z,20.93
2023-07-16T09:34:44.355Z,20.29
2023-07-16T09:38:46.536Z,20.68
2023-07-16T09:42:49.299Z,21.39
2023-07-16T09:46:50.914Z,20.83
2023-07-16T09:50:55.275Z,21.38
2023-07-16T09:54:57.229Z,21.53
2023-07-16T09:59:00.077Z,21.50
2023-07-16T10:03:01.975Z,21.65
2023-07-16T10:07:05.091Z,22.29
2023-07-16T10:11:16.891Z,22.23
2023-07-16T10:15:26.097Z,22.06
2023-07-16T10:19:27.661Z,22.23
2023-07-16T10:23:40.084Z,22.63
2023-07-16T10:27:41.700Z,21.77
2023-07-16T10:31:43.677Z,22.82
2023-07-16T10:35:46.899Z,23.54
2023-07-16T10:39:51.176Z,22.70
2023-07-16T10:43:55.513Z,22.73
2023-07-16T10:47:57.506Z,21.75
2023-07-16T10:52:02.011Z,22.29
2023-07-16T10:56:05.179Z,22.22
2023-07-16T11:00:11.949Z,21.60
2023-07-16T11:04:13.540Z,22.14
2023-07-16T11:08:22.957Z,22.32
2023-07-16T11:12:25.887Z,21.75
2023-07-16T11:16:27.588Z,22.65
2023-07-16T11:20:30.450Z,22.77
2023-07-16T11:24:39.144Z,22.67
2023-07-16T11:28:43.284Z,22.59
2023-07-16T11:32:47.773Z,24.10
2023-07-16T11:36:51.503Z,23.63
2023-07-16T11:40:53.380Z,24.04
2023-07-16T11:44:57.256Z,22.72
2023-07-16T11:48:58.807Z,23.22
2023-07-16T11:53:02.014Z,23.16
2023-07-16T11:57:04.052Z,23.29
2023-07-16T12:01:07.158Z,23.48
2023-07-16T12:05:08.805Z,24.12
2023-07-16T12:09:10.364Z,24.02
2023-07-16T12:13:11.978Z,23.94
2023-07-16T12:17:15.000Z,24.31
2023-07-16T12:21:16.668Z,24.19
2023-07-16T12:25:20.833Z,23.73
2023-07-16T12:29:22.438Z,23.63
2023-07-16T12:33:25.377Z,23.70
2023-07-16T12:37:27.601Z,24.00
2023-07-16T12:41:29.166Z,23.65
2023-07-16T12:45:30.738Z,23.76
2023-07-16T12:49:33.669Z,24.04
2023-07-16T12:53:35.222Z,23.92
2023-07-16T12:57:36.787Z,24.09
2023-07-16T13:01:38.351Z,24.32
2023-07-16T13:05:41.328Z,23.57
2023-07-16T13:09:42.902Z,23.64
2023-07-16T13:13:44.477Z,24.53
2023-07-16T13:17:46.061Z,23.79
2023-07-16T13:21:49.015Z,24.38
2023-07-16T13:25:50.555Z,24.03
2023-07-16T13:29:52.134Z,24.25
2023-07-16T13:33:53.792Z,25.24
2023-07-16T13:37:56.718Z,25.19
2023-07-16T13:42:08.743Z,25.90
2023-07-16T13:46:19.253Z,25.48
2023-07-16T13:50:20.960Z,25.31
2023-07-16T13:54:25.153Z,25.66
2023-07-16T13:58:26.708Z,25.23
2023-07-16T14:02:28.339Z,25.61
2023-07-16T14:06:29.928Z,26.04
2023-07-16T14:10:33.080Z,25.79
2023-07-16T14:14:34.675Z,25.74
2023-07-16T14:18:36.241Z,25.65
2023-07-16T14:22:37.918Z,26.01
2023-07-16T14:26:41.001Z,25.78
2023-07-16T14:30:42.597Z,25.18
2023-07-16T14:34:44.195Z,25.80
2023-07-16T14:38:45.840Z,25.81
2023-07-16T14:42:48.765Z,25.67
2023-07-16T14:46:50.437Z,25.37
2023-07-16T14:50:52.185Z,25.49
2023-07-16T14:54:54.812Z,24.89
2023-07-16T14:58:57.722Z,25.64
2023-07-16T15:03:00.034Z,25.80
2023-07-16T15:07:01.943Z,26.36
2023-07-16T15:11:03.622Z,26.08
2023-07-16T15:15:07.909Z,25.11
2023-07-16T15:19:09.643Z,25.43
2023-07-16T15:23:11.398Z,24.64
2023-07-16T15:27:13.076Z,24.44
2023-07-16T15:31:16.059Z,24.86
2023-07-16T15:35:17.735Z,24.96
2023-07-16T15:39:19.297Z,24.95
2023-07-16T15:43:20.907Z,25.29
2023-07-16T15:47:23.982Z,26.07
2023-07-16T15:51:25.747Z,26.23
2023-07-16T15:55:27.430Z,26.16
2023-07-16T15:59:29.001Z,25.45
2023-07-16T16:03:31.998Z,26.25
2023-07-16T16:07:33.654Z,25.88
2023-07-16T16:11:35.257Z,25.98
2023-07-16T16:15:36.897Z,26.33
2023-07-16T16:19:41.283Z,25.69
2023-07-16T16:23:44.240Z,26.29
2023-07-16T16:27:45.917Z,26.45
2023-07-16T16:31:47.561Z,26.40
2023-07-16T16:35:50.783Z,25.62
2023-07-16T16:39:52.541Z,25.84
2023-07-16T16:43:54.316Z,25.37
2023-07-16T16:47:56.105Z,26.23
2023-07-16T16:51:59.143Z,25.90
2023-07-16T16:56:05.139Z,25.76
2023-07-16T17:00:08.057Z,25.88
2023-07-16T17:04:09.700Z,25.42
2023-07-16T17:08:12.774Z,25.63
2023-07-16T17:12:14.360Z,25.38
2023-07-16T17:16:15.947Z,25.44
2023-07-16T17:20:17.558Z,25.62
2023-07-16T17:24:20.750Z,25.30
2023-07-16T17:28:22.341Z,24.98
2023-07-16T17:32:24.069Z,24.57
2023-07-16T17:36:25.726Z,25.04
2023-07-16T17:40:29.869Z,25.28
2023-07-16T17:44:31.505Z,25.46
2023-07-16T17:48:34.045Z,24.76
2023-07-16T17:52:36.015Z,24.78
2023-07-16T17:56:38.938Z,24.64
2023-07-16T18:00:40.541Z,25.05
2023-07-16T18:04:42.430Z,24.29
2023-07-16T18:08:44.088Z,24.52
2023-07-16T18:12:47.234Z,24.42
2023-07-16T18:16:49.092Z,24.43
2023-07-16T18:20:52.104Z,24.09
2023-07-16T18:24:55.490Z,23.87
2023-07-16T18:28:58.610Z,23.79
2023-07-16T18:33:00.302Z,23.97
2023-07-16T18:37:01.914Z,23.60
2023-07-16T18:41:03.585Z,23.28
2023-07-16T18:45:08.375Z,22.53
2023-07-16T18:49:09.960Z,22.23
2023-07-16T18:53:11.601Z,22.08
2023-07-16T18:57:13.254Z,22.34
2023-07-16T19:01:16.289Z,21.91
2023-07-16T19:05:17.975Z,21.74
2023-07-16T19:09:19.841Z,21.76
2023-07-16T19:13:21.466Z,21.33
2023-07-16T19:17:25.115Z,20.81
2023-07-16T19:21:26.686Z,20.47
2023-07-16T19:25:28.324Z,20.33
2023-07-16T19:29:29.940Z,20.12
2023-07-16T19:33:32.878Z,19.94
2023-07-16T19:37:34.451Z,19.82
2023-07-16T19:41:36.101Z,19.70
2023-07-16T19:45:40.558Z,19.60
2023-07-16T19:49:43.708Z,19.45
2023-07-16T19:53:45.340Z,19.36
2023-07-16T19:57:46.897Z,19.26
2023-07-16T20:01:48.490Z,19.23
2023-07-16T20:05:51.464Z,19.15
2023-07-16T20:09:55.099Z,18.92
2023-07-16T20:13:56.954Z,18.80
2023-07-16T20:17:58.581Z,18.80
2023-07-16T20:22:01.580Z,18.71
2023-07-16T20:26:03.262Z,18.58
2023-07-16T20:30:06.056Z,18.45
2023-07-16T20:34:07.603Z,18.46
2023-07-16T20:38:10.665Z,18.37
2023-07-16T20:42:12.299Z,18.29
2023-07-16T20:46:13.917Z,18.30
2023-07-16T20:50:17.071Z,18.24
2023-07-16T20:54:20.029Z,18.31
2023-07-16T20:58:21.654Z,18.31
2023-07-16T21:02:23.397Z,18.26
2023-07-16T21:06:24.988Z,18.25
2023-07-16T21:10:28.568Z,18.22
2023-07-16T21:14:30.143Z,18.13
2023-07-16T21:18:31.705Z,18.23
2023-07-16T21:22:33.277Z,18.17
2023-07-16T21:26:36.202Z,18.18
2023-07-16T21:30:38.149Z,18.19
2023-07-16T21:34:39.740Z,18.24
2023-07-16T21:38:41.280Z,18.23
2023-07-16T21:42:44.201Z,18.25
2023-07-16T21:46:45.769Z,18.25
2023-07-16T21:50:47.479Z,18.25
2023-07-16T21:54:49.079Z,18.24
2023-07-16T21:58:51.978Z,18.22
2023-07-16T22:02:53.435Z,18.20
2023-07-16T22:06:55.042Z,18.27
2023-07-16T22:10:56.626Z,18.26
2023-07-16T22:14:59.603Z,18.27
2023-07-16T22:19:01.433Z,18.15
2023-07-16T22:23:03.211Z,18.07
2023-07-16T22:27:05.201Z,18.01
2023-07-16T22:31:08.192Z,17.95
2023-07-16T22:35:09.834Z,17.88
2023-07-16T22:39:11.483Z,17.74
2023-07-16T22:43:13.113Z,17.53
2023-07-16T22:47:16.021Z,17.52
2023-07-16T22:51:17.666Z,17.40
2023-07-16T22:55:19.490Z,17.37
2023-07-16T22:59:21.231Z,17.34
2023-07-16T23:03:24.240Z,17.26
2023-07-16T23:07:26.045Z,17.09
2023-07-16T23:11:27.607Z,17.02
2023-07-16T23:15:29.371Z,17.00
2023-07-16T23:19:32.300Z,16.98
2023-07-16T23:23:33.737Z,17.11
2023-07-16T23:27:35.303Z,17.06
2023-07-16T23:31:36.960Z,16.98
2023-07-16T23:35:39.890Z,16.93
2023-07-16T23:39:41.383Z,16.93
2023-07-16T23:43:42.969Z,16.88
2023-07-16T23:47:44.612Z,16.76
2023-07-16T23:51:47.574Z,16.69
2023-07-16T23:55:49.187Z,16.65
2023-07-16T23:59:50.754Z,16.61
